AAL3756 KMIA-KFLL
Flight info
| Callsign | AAL3756 |
|---|---|
| Flight time | N/A |
| Altitude | 8000 |
| Route | HOLID/N0278F070 |
| Aircraft | A321/M-SDE3FGHIRWY/LB1 |
Departure
| Time | 2026-05-05 16:12 |
|---|---|
| Airport | Miami International Airport (KMIA) |
Arrival
| Time | N/A |
|---|---|
| Airport | Fort Lauderdale Hollywood International Airport (KFLL) |
| Time | Latitude | Longitude | Altitude | Speed | Heading |
|---|---|---|---|---|---|
| 2026-05-05 15:51 | 25.79786 | -80.27824 | 16 ft | 0 kts | 177° |
| 2026-05-05 16:01 | 25.79799 | -80.27825 | 17 ft | 3 kts | 177° |
| 2026-05-05 16:01 | 25.79818 | -80.27826 | 15 ft | 3 kts | 177° |
| 2026-05-05 16:01 | 25.79837 | -80.27827 | 16 ft | 3 kts | 177° |
| 2026-05-05 16:02 | 25.79854 | -80.27828 | 16 ft | 3 kts | 177° |
| 2026-05-05 16:02 | 25.79873 | -80.27829 | 15 ft | 3 kts | 177° |
| 2026-05-05 16:02 | 25.79891 | -80.27830 | 16 ft | 3 kts | 177° |
| 2026-05-05 16:02 | 25.79909 | -80.27831 | 16 ft | 3 kts | 177° |
| 2026-05-05 16:03 | 25.79926 | -80.27831 | 16 ft | 2 kts | 177° |
| 2026-05-05 16:03 | 25.79943 | -80.27832 | 15 ft | 3 kts | 180° |
| 2026-05-05 16:03 | 25.79961 | -80.27829 | 15 ft | 3 kts | 210° |
| 2026-05-05 16:03 | 25.79976 | -80.27817 | 18 ft | 3 kts | 238° |
| 2026-05-05 16:04 | 25.79979 | -80.27810 | 15 ft | 0 kts | 244° |
| 2026-05-05 16:04 | 25.79975 | -80.27844 | 16 ft | 11 kts | 272° |
| 2026-05-05 16:05 | 25.80040 | -80.27937 | 13 ft | 17 kts | 296° |
| 2026-05-05 16:05 | 25.80047 | -80.28064 | 12 ft | 16 kts | 268° |
| 2026-05-05 16:05 | 25.80043 | -80.28178 | 14 ft | 14 kts | 266° |
| 2026-05-05 16:05 | 25.80037 | -80.28275 | 15 ft | 12 kts | 266° |
| 2026-05-05 16:06 | 25.80034 | -80.28362 | 15 ft | 11 kts | 272° |
| 2026-05-05 16:06 | 25.80031 | -80.28443 | 15 ft | 10 kts | 266° |
| 2026-05-05 16:06 | 25.80031 | -80.28517 | 16 ft | 8 kts | 268° |
| 2026-05-05 16:06 | 25.80029 | -80.28572 | 18 ft | 8 kts | 266° |
| 2026-05-05 16:07 | 25.80022 | -80.28669 | 21 ft | 17 kts | 265° |
| 2026-05-05 16:07 | 25.80015 | -80.28838 | 22 ft | 27 kts | 268° |
| 2026-05-05 16:07 | 25.80006 | -80.29095 | 21 ft | 37 kts | 266° |
| 2026-05-05 16:07 | 25.79993 | -80.29382 | 19 ft | 38 kts | 268° |
| 2026-05-05 16:08 | 25.79984 | -80.29676 | 14 ft | 38 kts | 267° |
| 2026-05-05 16:08 | 25.79970 | -80.29955 | 12 ft | 34 kts | 272° |
| 2026-05-05 16:08 | 25.80070 | -80.30117 | 15 ft | 25 kts | 20° |
| 2026-05-05 16:08 | 25.80075 | -80.30092 | 14 ft | 3 kts | 116° |
| 2026-05-05 16:09 | 25.80073 | -80.30072 | 14 ft | 0 kts | 88° |
| 2026-05-05 16:11 | 25.80074 | -80.30045 | 13 ft | 22 kts | 88° |
| 2026-05-05 16:11 | 25.80212 | -80.27435 | 92 ft | 166 kts | 84° |
| 2026-05-05 16:12 | 25.80291 | -80.26313 | 592 ft | 136 kts | 81° |
| 2026-05-05 16:12 | 25.80364 | -80.24146 | 777 ft | 145 kts | 88° |
| 2026-05-05 16:13 | 25.80593 | -80.20631 | 974 ft | 161 kts | 84° |
| 2026-05-05 16:13 | 25.80700 | -80.19376 | 1060 ft | 169 kts | 83° |
| 2026-05-05 16:13 | 25.80798 | -80.18036 | 1050 ft | 179 kts | 84° |
| 2026-05-05 16:14 | 25.80973 | -80.15136 | 1067 ft | 196 kts | 85° |
| 2026-05-05 16:14 | 25.81141 | -80.11982 | 1069 ft | 211 kts | 84° |
| 2026-05-05 16:15 | 25.82170 | -80.09120 | 1053 ft | 206 kts | 32° |
| 2026-05-05 16:15 | 25.84844 | -80.09382 | 1051 ft | 214 kts | 319° |
| 2026-05-05 16:16 | 25.85544 | -80.12511 | 1039 ft | 217 kts | 266° |
| 2026-05-05 16:16 | 25.85257 | -80.15835 | 1044 ft | 217 kts | 268° |
| 2026-05-05 16:17 | 25.85172 | -80.19189 | 1087 ft | 219 kts | 272° |
| 2026-05-05 16:17 | 25.85223 | -80.20868 | 1203 ft | 218 kts | 274° |
| 2026-05-05 16:18 | 25.85151 | -80.24255 | 1629 ft | 219 kts | 265° |
| 2026-05-05 16:18 | 25.84979 | -80.25918 | 1628 ft | 221 kts | 266° |
| 2026-05-05 16:18 | 25.84840 | -80.29268 | 1602 ft | 216 kts | 270° |
| 2026-05-05 16:19 | 25.84788 | -80.30944 | 1601 ft | 217 kts | 269° |
| 2026-05-05 16:19 | 25.84668 | -80.32613 | 1635 ft | 218 kts | 266° |
| 2026-05-05 16:19 | 25.84283 | -80.35944 | 1730 ft | 219 kts | 266° |
| 2026-05-05 16:20 | 25.83862 | -80.39165 | 1658 ft | 200 kts | 248° |
| 2026-05-05 16:20 | 25.81915 | -80.40816 | 1585 ft | 172 kts | 184° |
| 2026-05-05 16:21 | 25.80195 | -80.39569 | 1344 ft | 151 kts | 104° |
| 2026-05-05 16:22 | 25.79806 | -80.36213 | 1225 ft | 144 kts | 79° |
| 2026-05-05 16:22 | 25.79933 | -80.33984 | 1012 ft | 144 kts | 85° |
| 2026-05-05 16:23 | 25.79993 | -80.31759 | 455 ft | 149 kts | 84° |
| 2026-05-05 16:23 | 25.80043 | -80.30595 | 177 ft | 153 kts | 85° |
| 2026-05-05 16:23 | 25.80139 | -80.28492 | 17 ft | 98 kts | 86° |
| 2026-05-05 16:24 | 25.80162 | -80.27931 | 14 ft | 48 kts | 88° |
| 2026-05-05 16:24 | 25.80165 | -80.27818 | 14 ft | 0 kts | 90° |